Time;durP1;ratioP1;P1;durP2;ratioP2;P2;SDS_P1;SDS_P2;PMS_P1;PMS_P2;Temp;Humidity;BMP_temperature;BMP_pressure;BME280_temperature;BME280_humidity;BME280_pressure;Samples;Min_cycle;Max_cycle;Signal;HPM_P1;HPM_P2
2023/01/15 00:01:04;;;;;;;6.45;0.88;;;7.00;99.90;;;;;;5049201;28;20041;-58
2023/01/15 00:03:30;;;;;;;11.32;1.38;;;7.00;99.90;;;;;;5048470;28;20198;-60
2023/01/15 00:06:00;;;;;;;;;;;7.10;99.90;;;;;;5048670;28;20045;-61
2023/01/15 00:08:25;;;;;;;12.23;1.20;;;7.10;99.90;;;;;;5048887;28;19921;-59
2023/01/15 00:10:51;;;;;;;12.63;1.30;;;7.10;99.90;;;;;;5040737;28;20049;-58
2023/01/15 00:13:17;;;;;;;4.10;1.43;;;7.10;99.90;;;;;;5038983;28;20041;-58
2023/01/15 00:15:42;;;;;;;5.40;0.83;;;7.10;99.90;;;;;;5045131;28;20118;-61
2023/01/15 00:18:08;;;;;;;8.18;0.68;;;7.10;99.90;;;;;;5046208;28;20035;-59
2023/01/15 00:20:34;;;;;;;7.25;1.33;;;7.10;99.90;;;;;;5047426;28;20033;-59
2023/01/15 00:23:00;;;;;;;3.97;0.70;;;7.10;99.90;;;;;;5046543;28;20045;-60
2023/01/15 00:28:13;;;;;;;8.25;1.48;;;7.10;99.90;;;;;;5047854;28;20045;-60
2023/01/15 00:30:41;;;;;;;5.90;0.68;;;7.20;99.90;;;;;;5048159;28;20080;-60
2023/01/15 00:33:07;;;;;;;7.82;0.90;;;7.10;99.90;;;;;;5046629;28;20106;-59
2023/01/15 00:35:33;;;;;;;12.13;1.08;;;7.20;99.90;;;;;;5047716;28;20032;-57
2023/01/15 00:37:59;;;;;;;9.37;0.80;;;7.10;99.90;;;;;;5047627;28;20410;-60
2023/01/15 00:40:24;;;;;;;9.37;1.53;;;7.10;99.90;;;;;;5048150;28;20472;-60
2023/01/15 00:42:50;;;;;;;12.80;2.40;;;7.10;99.90;;;;;;5047864;28;20033;-61
2023/01/15 00:45:16;;;;;;;7.00;0.80;;;7.10;99.90;;;;;;5046698;28;20422;-58
2023/01/15 00:47:44;;;;;;;18.40;1.20;;;7.10;99.90;;;;;;5047071;28;20029;-61
2023/01/15 00:50:14;;;;;;;10.27;1.25;;;7.10;99.90;;;;;;5046007;28;20287;-58
2023/01/15 00:52:40;;;;;;;12.43;1.55;;;7.10;99.90;;;;;;5046460;28;20033;-58
2023/01/15 00:55:07;;;;;;;13.95;1.55;;;7.10;99.90;;;;;;5046773;28;20033;-58
2023/01/15 00:57:34;;;;;;;11.63;1.90;;;7.10;99.90;;;;;;5046581;28;20119;-59
2023/01/15 01:00:00;;;;;;;10.00;1.08;;;7.10;99.90;;;;;;5051109;28;20033;-60
2023/01/15 01:02:25;;;;;;;9.40;1.85;;;7.10;99.90;;;;;;5049284;28;20446;-61
2023/01/15 01:04:51;;;;;;;10.10;1.00;;;7.10;99.90;;;;;;5050507;28;20033;-60
2023/01/15 01:07:17;;;;;;;8.97;0.93;;;7.10;99.90;;;;;;5050745;28;20041;-58
2023/01/15 01:09:43;;;;;;;6.07;0.85;;;7.10;99.90;;;;;;5051409;28;20036;-58
2023/01/15 01:12:09;;;;;;;12.88;1.52;;;7.10;99.90;;;;;;5050895;28;20044;-58
2023/01/15 01:14:36;;;;;;;8.73;1.13;;;7.10;99.90;;;;;;5049744;28;20037;-60
2023/01/15 01:17:01;;;;;;;9.52;1.35;;;7.10;99.90;;;;;;5049971;28;20048;-58
2023/01/15 01:19:27;;;;;;;7.27;0.90;;;7.00;99.90;;;;;;5051191;28;20029;-59
2023/01/15 01:21:53;;;;;;;5.23;0.50;;;7.00;99.90;;;;;;5050997;28;20294;-60
2023/01/15 01:24:22;;;;;;;13.40;1.73;;;7.00;99.90;;;;;;5049531;28;20033;-57
2023/01/15 01:26:49;;;;;;;6.50;1.23;;;7.00;99.90;;;;;;5050418;28;20033;-60
2023/01/15 01:29:20;;;;;;;5.55;1.27;;;7.00;99.90;;;;;;5050837;28;20125;-58
2023/01/15 01:31:46;;;;;;;9.80;1.00;;;7.00;99.90;;;;;;5050439;28;20052;-55
2023/01/15 01:34:13;;;;;;;9.43;0.93;;;7.00;99.90;;;;;;5050000;28;20057;-57
2023/01/15 01:36:41;;;;;;;10.10;1.65;;;7.00;99.90;;;;;;5050550;28;20112;-59
2023/01/15 01:39:11;;;;;;;12.95;1.88;;;7.00;99.90;;;;;;5049491;28;20060;-60
2023/01/15 01:41:37;;;;;;;10.75;1.40;;;7.00;99.90;;;;;;5048456;28;20051;-59
2023/01/15 01:44:30;;;;;;;13.85;1.25;;;7.00;99.90;;;;;;5049149;28;20061;-60
2023/01/15 01:46:56;;;;;;;8.32;1.77;;;7.00;99.90;;;;;;5037176;28;20575;-59
2023/01/15 01:49:23;;;;;;;11.02;1.48;;;7.00;99.90;;;;;;5050119;28;20041;-57
2023/01/15 01:51:55;;;;;;;13.35;1.30;;;7.00;99.90;;;;;;5046959;28;20091;-59
2023/01/15 01:54:24;;;;;;;7.22;1.00;;;6.90;99.90;;;;;;5046741;28;20035;-59
2023/01/15 01:56:50;;;;;;;11.90;1.73;;;7.00;99.90;;;;;;5050182;28;20045;-61
2023/01/15 01:59:18;;;;;;;10.90;2.75;;;7.00;99.90;;;;;;5049991;28;20072;-60
2023/01/15 02:01:44;;;;;;;9.25;2.25;;;6.90;99.90;;;;;;5049423;28;20040;-59
2023/01/15 02:04:11;;;;;;;15.05;1.33;;;7.00;99.90;;;;;;5048884;28;20033;-59
2023/01/15 02:06:38;;;;;;;11.63;0.90;;;6.90;99.90;;;;;;5049381;28;20047;-58
2023/01/15 02:09:04;;;;;;;11.77;1.38;;;6.90;99.90;;;;;;5048682;28;20044;-58
2023/01/15 02:11:33;;;;;;;11.25;1.13;;;6.90;99.90;;;;;;5049557;28;20334;-59
2023/01/15 02:14:21;;;;;;;10.23;1.45;;;7.00;99.90;;;;;;5047962;28;20036;-59
2023/01/15 02:17:14;;;;;;;7.05;0.88;;;7.00;99.90;;;;;;5049422;28;20041;-60
2023/01/15 02:20:18;;;;;;;11.35;1.38;;;7.00;99.90;;;;;;5048265;28;20155;-60
2023/01/15 02:22:53;;;;;;;8.55;1.52;;;7.00;99.90;;;;;;5049698;28;20457;-59
2023/01/15 02:25:50;;;;;;;11.13;1.20;;;7.00;99.90;;;;;;5050702;28;20037;-62
2023/01/15 02:28:24;;;;;;;8.25;0.88;;;7.00;99.90;;;;;;5049923;28;20037;-60
2023/01/15 02:31:05;;;;;;;7.70;1.17;;;6.90;99.90;;;;;;5050807;28;20048;-60
2023/01/15 02:33:48;;;;;;;8.10;0.77;;;6.90;99.90;;;;;;5049691;28;20378;-58
2023/01/15 02:36:16;;;;;;;10.32;1.15;;;6.90;99.90;;;;;;5049909;28;20472;-57
2023/01/15 02:38:49;;;;;;;6.30;0.95;;;6.80;99.90;;;;;;5050223;28;20032;-58
2023/01/15 02:41:19;;;;;;;5.20;0.93;;;6.80;99.90;;;;;;5050670;28;20095;-58
2023/01/15 02:43:50;;;;;;;6.20;0.93;;;6.80;99.90;;;;;;5049730;28;20040;-60
2023/01/15 02:46:17;;;;;;;10.50;1.48;;;6.80;99.90;;;;;;5049570;28;20052;-60
2023/01/15 02:48:48;;;;;;;11.40;1.90;;;6.80;99.90;;;;;;5049495;28;20052;-58
2023/01/15 02:51:20;;;;;;;5.03;1.67;;;6.80;99.90;;;;;;5050472;28;20052;-60
2023/01/15 02:53:48;;;;;;;15.70;1.15;;;6.80;99.90;;;;;;5049579;28;20069;-58
2023/01/15 02:56:17;;;;;;;8.43;1.23;;;6.80;99.90;;;;;;5049997;28;20044;-57
2023/01/15 02:58:46;;;;;;;22.83;2.58;;;6.80;99.90;;;;;;5049305;28;20040;-60
2023/01/15 03:01:17;;;;;;;8.10;1.63;;;6.80;99.90;;;;;;5050111;28;20044;-57
2023/01/15 03:04:01;;;;;;;10.82;1.60;;;6.80;99.90;;;;;;5049613;28;20045;-57
2023/01/15 03:06:37;;;;;;;11.05;1.27;;;6.80;99.90;;;;;;5050153;28;20072;-61
2023/01/15 03:09:03;;;;;;;13.48;1.77;;;6.80;99.90;;;;;;5048909;28;20033;-58
2023/01/15 03:11:36;;;;;;;11.60;1.83;;;6.80;99.90;;;;;;5049715;28;20099;-60
2023/01/15 03:14:14;;;;;;;13.40;2.58;;;6.70;99.90;;;;;;5048003;28;20039;-58
2023/01/15 03:17:00;;;;;;;11.02;1.20;;;6.70;99.90;;;;;;5050067;28;20041;-58
2023/01/15 03:19:40;;;;;;;8.80;1.08;;;6.70;99.90;;;;;;5048647;28;20036;-61
2023/01/15 03:22:15;;;;;;;17.27;2.95;;;6.70;99.90;;;;;;5050003;28;20052;-60
2023/01/15 03:24:53;;;;;;;12.63;1.50;;;6.70;99.90;;;;;;5048212;28;20111;-58
2023/01/15 03:27:20;;;;;;;12.25;1.67;;;6.70;99.90;;;;;;5040898;28;20051;-58
2023/01/15 03:29:49;;;;;;;23.95;2.78;;;6.70;99.90;;;;;;5047755;28;20051;-60
2023/01/15 03:32:16;;;;;;;19.67;2.75;;;6.70;99.90;;;;;;5049867;28;20068;-57
2023/01/15 03:34:49;;;;;;;11.18;2.78;;;6.70;99.90;;;;;;5048249;28;20060;-61
2023/01/15 03:37:15;;;;;;;13.50;0.98;;;6.70;99.90;;;;;;5049233;28;20045;-59
2023/01/15 03:39:41;;;;;;;11.05;1.73;;;6.70;99.90;;;;;;5047028;28;20043;-58
2023/01/15 03:42:21;;;;;;;14.55;2.72;;;6.70;99.90;;;;;;5049352;28;20494;-60
2023/01/15 03:45:19;;;;;;;10.70;2.70;;;6.70;99.90;;;;;;5048175;28;20444;-58
2023/01/15 03:48:18;;;;;;;9.40;1.92;;;6.70;99.90;;;;;;5028979;28;20041;-59
2023/01/15 03:50:59;;;;;;;10.77;1.55;;;6.70;99.90;;;;;;5048635;28;20469;-59
2023/01/15 03:53:55;;;;;;;25.88;2.67;;;6.80;99.90;;;;;;5048983;28;20041;-57
2023/01/15 03:56:29;;;;;;;11.98;0.88;;;6.80;99.90;;;;;;5047180;28;20041;-60
2023/01/15 03:59:04;;;;;;;15.45;2.05;;;6.80;99.90;;;;;;5049099;28;20064;-58
2023/01/15 04:01:35;;;;;;;17.58;3.17;;;6.80;99.90;;;;;;5048896;28;20078;-57
2023/01/15 04:04:01;;;;;;;24.38;1.98;;;6.80;99.90;;;;;;5048125;28;20068;-60
2023/01/15 04:06:29;;;;;;;9.75;1.67;;;6.70;99.90;;;;;;5048993;28;20048;-60
2023/01/15 04:08:56;;;;;;;9.40;1.63;;;6.70;99.90;;;;;;5048957;28;20048;-60
2023/01/15 04:11:24;;;;;;;7.68;1.35;;;6.70;99.90;;;;;;5048744;28;20483;-57
2023/01/15 04:13:50;;;;;;;10.80;1.65;;;6.70;99.90;;;;;;5048067;28;20044;-59
2023/01/15 04:16:24;;;;;;;14.35;2.00;;;6.70;99.90;;;;;;5048663;28;20052;-58
2023/01/15 04:18:51;;;;;;;11.68;1.40;;;6.70;99.90;;;;;;5049329;28;20389;-58
2023/01/15 04:21:16;;;;;;;13.27;1.73;;;6.70;99.90;;;;;;5048830;28;20052;-58
2023/01/15 04:23:42;;;;;;;11.20;1.10;;;6.70;99.90;;;;;;5048462;28;20045;-58
2023/01/15 04:26:08;;;;;;;16.00;1.90;;;6.70;99.90;;;;;;5048539;28;20432;-59
2023/01/15 04:28:33;;;;;;;10.97;1.43;;;6.70;99.90;;;;;;5048158;28;20280;-61
2023/01/15 04:30:59;;;;;;;15.23;1.70;;;6.70;99.90;;;;;;5049538;28;20037;-55
2023/01/15 04:33:25;;;;;;;12.33;1.53;;;6.70;99.90;;;;;;5052325;28;20033;-58
2023/01/15 04:35:50;;;;;;;14.73;1.52;;;6.60;99.90;;;;;;5052481;28;20041;-60
2023/01/15 04:38:19;;;;;;;11.40;1.90;;;6.60;99.90;;;;;;5052096;28;20559;-58
2023/01/15 04:46:14;;;;;;;5.72;0.95;;;6.60;99.90;;;;;;5052831;28;20041;-58
2023/01/15 04:48:39;;;;;;;9.87;1.33;;;6.60;99.90;;;;;;5051947;28;20562;-57
2023/01/15 04:51:06;;;;;;;18.13;4.07;;;6.60;99.90;;;;;;5050857;28;20808;-57
2023/01/15 04:53:32;;;;;;;17.08;2.13;;;6.60;99.90;;;;;;5051215;28;20029;-58
2023/01/15 04:56:02;;;;;;;19.33;2.33;;;6.60;99.90;;;;;;5052453;28;20037;-57
2023/01/15 04:58:29;;;;;;;11.95;1.35;;;6.50;99.90;;;;;;5052102;28;20036;-57
2023/01/15 05:00:54;;;;;;;10.07;1.48;;;6.50;99.90;;;;;;5051970;28;20083;-60
2023/01/15 05:03:20;;;;;;;19.30;2.03;;;6.50;99.90;;;;;;5051390;28;20040;-56
2023/01/15 05:05:45;;;;;;;9.40;1.80;;;6.40;99.90;;;;;;5051998;28;20560;-57
2023/01/15 05:08:11;;;;;;;13.27;1.40;;;6.40;99.90;;;;;;5051098;28;20410;-60
2023/01/15 05:10:36;;;;;;;9.23;1.57;;;6.40;99.90;;;;;;5052147;28;20075;-60
2023/01/15 05:13:02;;;;;;;9.93;1.20;;;6.40;99.90;;;;;;5050817;28;20045;-59
2023/01/15 05:15:28;;;;;;;17.30;1.50;;;6.40;99.90;;;;;;5051765;28;20043;-60
2023/01/15 05:17:53;;;;;;;10.87;1.30;;;6.40;99.90;;;;;;5052064;28;20349;-59
2023/01/15 05:20:19;;;;;;;11.63;1.80;;;6.40;99.90;;;;;;5052059;28;20033;-59
2023/01/15 05:22:44;;;;;;;12.83;1.57;;;6.40;99.90;;;;;;5050902;28;20056;-57
2023/01/15 05:25:10;;;;;;;8.83;2.30;;;6.40;99.90;;;;;;5050716;28;20041;-60
2023/01/15 05:27:35;;;;;;;8.03;1.03;;;6.40;99.90;;;;;;5051466;28;20045;-58
2023/01/15 05:30:01;;;;;;;9.43;1.70;;;6.40;99.90;;;;;;5051769;28;20044;-59
2023/01/15 05:32:28;;;;;;;20.58;2.15;;;6.40;99.90;;;;;;5051317;28;20107;-58
2023/01/15 05:34:54;;;;;;;10.32;1.05;;;6.40;99.90;;;;;;5050439;28;20133;-57
2023/01/15 05:37:19;;;;;;;7.90;1.43;;;6.40;99.90;;;;;;5050685;28;20076;-59
2023/01/15 05:39:45;;;;;;;7.73;0.93;;;6.40;99.90;;;;;;5051527;28;20040;-58
2023/01/15 05:42:10;;;;;;;7.67;1.53;;;6.40;99.90;;;;;;5051370;28;20178;-59
2023/01/15 05:44:36;;;;;;;8.30;1.87;;;6.40;99.90;;;;;;5049940;28;20040;-58
2023/01/15 05:47:04;;;;;;;14.47;1.70;;;6.40;99.90;;;;;;5051208;28;20051;-58
2023/01/15 05:49:30;;;;;;;12.13;1.95;;;6.40;99.90;;;;;;5051197;28;20041;-59
2023/01/15 05:51:59;;;;;;;9.15;1.30;;;6.40;99.90;;;;;;5051368;28;20041;-59
2023/01/15 05:54:28;;;;;;;8.38;1.67;;;6.40;99.90;;;;;;5049734;28;20040;-58
2023/01/15 05:56:54;;;;;;;11.02;0.95;;;6.40;99.90;;;;;;5050997;28;20048;-60
2023/01/15 05:59:23;;;;;;;16.48;2.45;;;6.40;99.90;;;;;;5050938;28;20120;-57
2023/01/15 06:01:48;;;;;;;8.05;0.98;;;6.40;99.90;;;;;;5046804;28;20536;-58
2023/01/15 06:04:16;;;;;;;8.63;0.95;;;6.40;99.90;;;;;;5049749;28;20041;-60
2023/01/15 06:06:42;;;;;;;10.65;1.30;;;6.40;99.90;;;;;;5050384;28;20505;-59
2023/01/15 06:09:09;;;;;;;7.88;0.90;;;6.40;99.90;;;;;;5041387;28;20044;-59
2023/01/15 06:11:34;;;;;;;14.13;1.33;;;6.40;99.90;;;;;;5047129;28;20429;-59
2023/01/15 06:14:00;;;;;;;5.47;0.63;;;6.40;99.90;;;;;;5050158;28;20036;-59
2023/01/15 06:16:26;;;;;;;10.37;1.13;;;6.30;99.90;;;;;;5050982;28;20551;-56
2023/01/15 06:18:51;;;;;;;12.20;1.40;;;6.30;99.90;;;;;;5050454;28;20036;-60
2023/01/15 06:21:17;;;;;;;15.25;1.33;;;6.20;99.90;;;;;;5051045;28;20071;-60
2023/01/15 06:23:43;;;;;;;9.55;1.27;;;6.20;99.90;;;;;;5050664;28;20041;-61
2023/01/15 06:26:15;;;;;;;6.68;1.13;;;6.10;99.90;;;;;;5050280;28;20099;-57
2023/01/15 06:28:41;;;;;;;15.15;1.95;;;6.10;99.90;;;;;;5050308;28;20044;-58
2023/01/15 06:31:09;;;;;;;9.00;0.95;;;6.00;99.90;;;;;;5050332;28;20510;-60
2023/01/15 06:33:35;;;;;;;6.60;1.00;;;6.00;99.90;;;;;;5049449;28;20045;-59
2023/01/15 06:36:06;;;;;;;13.65;1.45;;;6.00;99.90;;;;;;5050297;28;20041;-59
2023/01/15 06:38:32;;;;;;;10.45;0.93;;;5.90;99.90;;;;;;5050465;28;20056;-60
2023/01/15 06:40:59;;;;;;;10.57;1.93;;;5.90;99.90;;;;;;5049007;28;20040;-60
2023/01/15 06:48:53;;;;;;;11.63;1.20;;;5.90;99.90;;;;;;5050057;28;20080;-59
2023/01/15 06:51:20;;;;;;;7.47;0.73;;;6.00;99.90;;;;;;5050178;28;20072;-57
2023/01/15 06:53:46;;;;;;;9.10;1.38;;;6.00;99.90;;;;;;5048033;28;20344;-59
2023/01/15 06:56:13;;;;;;;11.52;1.00;;;5.90;99.90;;;;;;5047393;28;20112;-60
2023/01/15 06:58:40;;;;;;;9.90;1.92;;;6.00;99.90;;;;;;5049149;28;20532;-58
2023/01/15 07:01:11;;;;;;;6.78;0.98;;;6.00;99.90;;;;;;5049839;28;20115;-59
2023/01/15 07:03:37;;;;;;;12.73;1.13;;;6.00;99.90;;;;;;5049435;28;20112;-59
2023/01/15 07:06:11;;;;;;;11.40;1.27;;;6.00;99.90;;;;;;5049540;28;20120;-59
2023/01/15 07:08:37;;;;;;;4.72;1.30;;;6.00;99.90;;;;;;5047325;28;20043;-60
2023/01/15 07:11:08;;;;;;;9.07;1.33;;;6.00;99.90;;;;;;5049398;28;20462;-57
2023/01/15 07:13:35;;;;;;;7.72;1.55;;;6.00;99.90;;;;;;5048547;28;20037;-57
2023/01/15 07:16:02;;;;;;;10.90;1.85;;;5.90;99.90;;;;;;5049402;28;20124;-58
2023/01/15 07:18:29;;;;;;;7.22;1.13;;;5.90;99.90;;;;;;5049063;28;20041;-59
2023/01/15 07:20:56;;;;;;;11.93;1.30;;;5.90;99.90;;;;;;5044475;28;20036;-57
2023/01/15 07:23:22;;;;;;;;;;;5.90;99.90;;;;;;5047734;28;20564;-57
2023/01/15 07:25:48;;;;;;;9.00;0.95;;;5.80;99.90;;;;;;5053863;28;19924;-58
2023/01/15 07:28:13;;;;;;;11.73;1.53;;;5.70;99.90;;;;;;5068506;28;20117;-57
2023/01/15 07:30:39;;;;;;;12.67;0.60;;;5.70;99.90;;;;;;5069259;28;20068;-57
2023/01/15 07:33:04;;;;;;;8.93;1.60;;;5.60;99.90;;;;;;5048687;28;20486;-58
2023/01/15 07:35:30;;;;;;;13.87;2.17;;;5.60;99.90;;;;;;5048857;28;20312;-58
2023/01/15 07:37:56;;;;;;;9.00;1.27;;;5.60;99.90;;;;;;5049175;28;20037;-58
2023/01/15 07:40:21;;;;;;;17.77;1.37;;;5.50;99.90;;;;;;5049347;28;20047;-59
2023/01/15 07:51:00;;;;;;;7.80;0.75;;;5.50;99.90;;;;;;5049659;28;20441;-58
2023/01/15 07:53:25;;;;;;;14.63;1.63;;;5.50;99.90;;;;;;5047056;28;20045;-57
2023/01/15 07:55:51;;;;;;;8.67;0.90;;;5.50;99.90;;;;;;5048831;28;20044;-58
2023/01/15 07:58:17;;;;;;;10.47;1.33;;;5.60;99.90;;;;;;5048361;28;20039;-58
2023/01/15 08:00:42;;;;;;;11.43;2.17;;;5.60;99.90;;;;;;5049370;28;20040;-58
2023/01/15 08:03:08;;;;;;;6.93;0.90;;;5.50;99.90;;;;;;5048056;28;20462;-60
2023/01/15 08:05:33;;;;;;;9.63;1.33;;;5.50;99.90;;;;;;5049364;28;20041;-59
2023/01/15 08:07:59;;;;;;;9.50;1.43;;;5.50;99.90;;;;;;5052704;28;20112;-58
2023/01/15 08:10:25;;;;;;;12.93;2.83;;;5.50;99.90;;;;;;5052069;28;20043;-58
2023/01/15 08:15:39;;;;;;;9.52;0.93;;;5.40;99.90;;;;;;5042809;28;20033;-58
2023/01/15 08:18:05;;;;;;;10.35;0.88;;;5.40;99.90;;;;;;5051121;28;20122;-56
2023/01/15 08:20:33;;;;;;;5.72;1.73;;;5.50;99.90;;;;;;5066109;28;20040;-58
2023/01/15 08:23:00;;;;;;;7.35;1.00;;;5.70;99.90;;;;;;5051872;28;20044;-60
2023/01/15 08:25:25;;;;;;;;;;;5.90;99.90;;;;;;5053556;28;20041;-58
2023/01/15 08:27:51;;;;;;;7.28;1.02;;;6.20;99.90;;;;;;5052571;28;20282;-58
2023/01/15 08:30:20;;;;;;;9.82;0.80;;;6.50;99.90;;;;;;5052465;28;20163;-59
2023/01/15 08:32:46;;;;;;;9.65;0.95;;;6.70;99.90;;;;;;5052213;28;20072;-57
2023/01/15 08:35:12;;;;;;;14.07;2.53;;;7.10;99.90;;;;;;5050996;28;20064;-59
2023/01/15 08:37:39;;;;;;;7.78;1.55;;;7.40;99.90;;;;;;5050289;28;20558;-59
2023/01/15 08:40:06;;;;;;;11.00;1.13;;;7.70;99.90;;;;;;5052579;28;20029;-58
2023/01/15 08:42:32;;;;;;;7.05;1.08;;;7.80;99.90;;;;;;5051362;28;20043;-59
2023/01/15 08:44:57;;;;;;;10.07;1.35;;;7.90;99.90;;;;;;5048388;28;20044;-57
2023/01/15 08:47:23;;;;;;;8.63;1.03;;;8.00;99.90;;;;;;5051501;28;20539;-57
2023/01/15 08:49:49;;;;;;;7.20;0.60;;;8.00;99.90;;;;;;5052496;28;20073;-57
2023/01/15 08:52:15;;;;;;;12.37;2.17;;;8.00;99.90;;;;;;5051807;28;20502;-58
2023/01/15 08:54:40;;;;;;;6.55;0.95;;;7.90;99.90;;;;;;5050515;28;20051;-56
2023/01/15 08:57:08;;;;;;;11.57;1.23;;;8.00;99.90;;;;;;5051470;28;20036;-57
2023/01/15 08:59:33;;;;;;;6.57;1.13;;;8.00;99.90;;;;;;5050249;28;20719;-59
2023/01/15 09:01:59;;;;;;;6.90;1.10;;;8.10;99.90;;;;;;5052739;28;20124;-59
2023/01/15 09:04:25;;;;;;;8.15;0.70;;;8.20;99.90;;;;;;5050890;28;20291;-55
2023/01/15 09:06:51;;;;;;;7.03;0.70;;;8.00;99.90;;;;;;5051581;28;20052;-60
2023/01/15 09:09:17;;;;;;;9.17;1.30;;;7.50;99.90;;;;;;5051721;28;20070;-58
2023/01/15 09:11:44;;;;;;;10.68;1.15;;;7.30;99.90;;;;;;5049964;28;20454;-58
2023/01/15 09:14:11;;;;;;;14.88;0.88;;;7.40;99.90;;;;;;5051191;28;20039;-60
2023/01/15 09:16:37;;;;;;;8.52;0.88;;;7.50;99.90;;;;;;5051010;28;20116;-58
2023/01/15 09:19:04;;;;;;;9.02;0.98;;;7.40;99.90;;;;;;5050057;28;20033;-58
2023/01/15 09:21:30;;;;;;;11.95;1.38;;;7.30;99.90;;;;;;5052040;28;20045;-59
2023/01/15 09:23:56;;;;;;;7.00;1.00;;;7.40;99.90;;;;;;5049278;28;20609;-58
2023/01/15 09:26:33;;;;;;;6.03;1.20;;;7.50;99.90;;;;;;5048549;28;20040;-59
2023/01/15 09:28:59;;;;;;;9.15;1.98;;;7.50;99.90;;;;;;5051248;28;20040;-59
2023/01/15 09:31:26;;;;;;;7.60;0.70;;;7.30;99.90;;;;;;5051774;28;20049;-59
2023/01/15 09:33:52;;;;;;;12.07;1.10;;;7.10;99.90;;;;;;5051142;28;20112;-60
2023/01/15 09:36:22;;;;;;;14.93;1.88;;;6.90;99.90;;;;;;5050672;28;20120;-57
2023/01/15 09:38:48;;;;;;;4.45;0.70;;;6.80;99.90;;;;;;5050477;28;20076;-57
2023/01/15 09:44:13;;;;;;;9.68;2.05;;;6.60;99.90;;;;;;5051109;28;20080;-60
2023/01/15 09:46:44;;;;;;;5.05;0.93;;;6.40;99.90;;;;;;5051068;28;20100;-57
2023/01/15 09:49:37;;;;;;;6.75;0.82;;;6.30;99.90;;;;;;5050827;28;20036;-59
2023/01/15 09:52:28;;;;;;;7.70;0.60;;;6.20;99.90;;;;;;5051198;28;20052;-58
2023/01/15 09:55:07;;;;;;;10.15;0.80;;;6.20;99.90;;;;;;5047795;28;20044;-60
2023/01/15 09:57:34;;;;;;;6.57;0.77;;;6.10;99.90;;;;;;5049933;28;20033;-59
2023/01/15 10:00:04;;;;;;;8.80;1.58;;;6.00;99.90;;;;;;5046100;28;20405;-58
2023/01/15 10:02:50;;;;;;;13.32;1.15;;;6.00;99.90;;;;;;5045978;28;20405;-60
2023/01/15 10:05:42;;;;;;;7.97;1.25;;;5.90;99.90;;;;;;5048923;28;20044;-60
2023/01/15 10:08:33;;;;;;;9.13;0.65;;;5.80;99.90;;;;;;5049566;28;20037;-59
2023/01/15 10:11:03;;;;;;;8.85;0.70;;;5.70;99.90;;;;;;5050213;28;20049;-59
2023/01/15 10:13:40;;;;;;;7.65;0.75;;;5.60;99.90;;;;;;5049559;28;20091;-58
2023/01/15 10:16:07;;;;;;;11.73;1.27;;;5.50;99.90;;;;;;5049794;28;20036;-60
2023/01/15 10:18:32;;;;;;;8.45;0.70;;;5.50;99.90;;;;;;5047919;28;20049;-57
2023/01/15 10:21:19;;;;;;;9.40;1.00;;;5.50;99.90;;;;;;5050377;28;20525;-59
2023/01/15 10:23:47;;;;;;;7.30;0.68;;;5.80;99.90;;;;;;5049321;28;20037;-59
2023/01/15 10:26:30;;;;;;;5.45;0.47;;;6.40;99.90;;;;;;5050042;28;20037;-58
2023/01/15 10:29:17;;;;;;;9.35;0.85;;;6.90;99.90;;;;;;5048967;28;20045;-59
2023/01/15 10:31:50;;;;;;;;;;;6.70;99.90;;;;;;5050099;28;20049;-59
2023/01/15 10:34:46;;;;;;;8.70;0.80;;;6.50;99.90;;;;;;5048163;28;19920;-59
2023/01/15 10:37:24;;;;;;;8.73;0.95;;;6.30;99.90;;;;;;5048590;28;20047;-59
2023/01/15 10:40:02;;;;;;;6.38;1.08;;;6.00;99.90;;;;;;5030606;28;20128;-59
2023/01/15 10:42:43;;;;;;;8.57;0.73;;;5.90;99.90;;;;;;5036120;28;20045;-59
2023/01/15 10:45:17;;;;;;;4.78;1.02;;;5.80;99.90;;;;;;5049260;28;20044;-57
2023/01/15 10:47:45;;;;;;;5.47;0.80;;;5.80;99.90;;;;;;5047042;28;20460;-57
2023/01/15 10:50:20;;;;;;;8.27;0.75;;;5.80;99.90;;;;;;5049964;28;20033;-58
2023/01/15 10:53:32;;;;;;;14.23;2.00;;;6.00;99.90;;;;;;5046842;28;20608;-58
2023/01/15 10:56:12;;;;;;;9.43;0.65;;;6.10;99.90;;;;;;5048236;28;20060;-59
2023/01/15 10:58:53;;;;;;;14.10;1.38;;;6.30;99.90;;;;;;5049248;28;20024;-59
2023/01/15 11:01:22;;;;;;;10.35;0.90;;;6.40;99.90;;;;;;5049911;28;20029;-59
2023/01/15 11:03:48;;;;;;;17.88;1.48;;;6.50;99.90;;;;;;5048576;28;20041;-58
2023/01/15 11:06:17;;;;;;;8.02;1.08;;;6.60;99.90;;;;;;5049519;28;20074;-60
2023/01/15 11:08:55;;;;;;;9.27;0.63;;;6.60;99.90;;;;;;5049450;28;20079;-59
2023/01/15 11:20:00;;;;;;;9.18;1.13;;;6.40;99.90;;;;;;5049927;28;20037;-58
2023/01/15 11:22:27;;;;;;;;;;;6.40;99.90;;;;;;5050253;28;20047;-59
2023/01/15 11:24:56;;;;;;;8.20;1.45;;;6.30;99.90;;;;;;5047134;28;19916;-59
2023/01/15 11:27:25;;;;;;;8.15;1.15;;;6.20;99.90;;;;;;5049637;28;20826;-57
2023/01/15 11:29:56;;;;;;;9.38;0.88;;;6.20;99.90;;;;;;5049086;28;20112;-57
2023/01/15 11:32:34;;;;;;;14.77;1.10;;;6.20;99.90;;;;;;5049250;28;20032;-60
2023/01/15 11:35:12;;;;;;;3.83;0.88;;;6.20;99.90;;;;;;5047019;28;20071;-60
2023/01/15 11:37:37;;;;;;;4.47;0.60;;;6.20;99.90;;;;;;5047841;28;20462;-59
2023/01/15 11:40:07;;;;;;;9.17;0.60;;;6.50;99.90;;;;;;5048815;28;20060;-58
2023/01/15 11:51:12;;;;;;;12.45;1.33;;;7.40;99.90;;;;;;5049798;28;20041;-58
2023/01/15 11:53:45;;;;;;;8.30;0.75;;;7.90;99.90;;;;;;5048182;28;20048;-57
2023/01/15 11:56:18;;;;;;;14.27;3.03;;;8.30;99.90;;;;;;5040603;28;20033;-56
2023/01/15 11:58:47;;;;;;;9.63;1.02;;;8.50;99.90;;;;;;5046988;28;20432;-58
2023/01/15 12:01:22;;;;;;;12.80;1.48;;;8.20;99.90;;;;;;5049374;28;20059;-57
2023/01/15 12:03:47;;;;;;;8.00;0.90;;;8.10;99.90;;;;;;5048248;28;20048;-57
2023/01/15 12:06:14;;;;;;;11.33;1.17;;;8.50;99.90;;;;;;5048472;28;20029;-60
2023/01/15 12:08:57;;;;;;;13.40;1.70;;;9.10;99.90;;;;;;5048675;28;20029;-58
2023/01/15 12:11:29;;;;;;;7.80;0.82;;;9.30;99.90;;;;;;5048764;28;20512;-57
2023/01/15 12:14:03;;;;;;;9.63;1.00;;;9.30;99.90;;;;;;5047649;28;20124;-57
2023/01/15 12:16:47;;;;;;;11.35;1.42;;;9.40;99.90;;;;;;5046689;28;20498;-57
2023/01/15 12:19:26;;;;;;;8.27;1.13;;;9.10;99.90;;;;;;5043153;28;20257;-57
2023/01/15 12:22:01;;;;;;;10.57;1.25;;;8.60;99.90;;;;;;5048723;28;20051;-57
2023/01/15 12:24:29;;;;;;;10.25;1.00;;;8.20;99.90;;;;;;5047829;28;20102;-57
2023/01/15 12:27:19;;;;;;;10.70;1.45;;;8.00;99.90;;;;;;5047987;28;20044;-59
2023/01/15 12:29:57;;;;;;;8.30;1.10;;;7.80;99.90;;;;;;5048966;28;20041;-59
2023/01/15 12:32:30;;;;;;;8.20;1.15;;;7.60;99.90;;;;;;5047289;28;20467;-57
2023/01/15 12:35:03;;;;;;;8.07;1.00;;;7.50;99.90;;;;;;5047973;28;20119;-57
2023/01/15 12:37:45;;;;;;;8.73;1.52;;;7.50;99.90;;;;;;5046373;28;20826;-59
2023/01/15 12:40:13;;;;;;;12.02;1.63;;;7.40;99.90;;;;;;5035623;28;20406;-59
2023/01/15 12:45:32;;;;;;;15.00;1.30;;;7.30;99.90;;;;;;5044584;28;20128;-59
2023/01/15 12:48:26;;;;;;;11.43;2.00;;;7.20;99.90;;;;;;5044070;28;20045;-59
2023/01/15 12:50:55;;;;;;;10.55;1.50;;;7.30;99.90;;;;;;5042335;28;20045;-57
2023/01/15 12:53:28;;;;;;;8.93;1.30;;;7.20;99.90;;;;;;5043813;28;20520;-57
2023/01/15 12:56:22;;;;;;;7.93;1.30;;;7.20;99.90;;;;;;5045287;28;20124;-59
2023/01/15 12:58:51;;;;;;;3.95;1.20;;;7.10;99.90;;;;;;5045731;28;20052;-59
2023/01/15 13:01:47;;;;;;;6.75;0.70;;;7.00;99.90;;;;;;5047311;28;20045;-58
2023/01/15 13:04:21;;;;;;;8.85;1.65;;;6.90;99.90;;;;;;5045090;28;20079;-59
2023/01/15 13:06:53;;;;;;;8.30;1.55;;;7.00;99.90;;;;;;5045444;28;20537;-59
2023/01/15 13:09:36;;;;;;;12.68;2.08;;;7.20;99.90;;;;;;5044387;28;20041;-59
2023/01/15 13:12:02;;;;;;;12.73;1.92;;;7.30;99.90;;;;;;5047099;28;20040;-59
2023/01/15 13:14:29;;;;;;;11.90;0.90;;;7.80;99.90;;;;;;5045278;28;20041;-59
2023/01/15 13:17:10;;;;;;;7.47;1.52;;;8.40;99.90;;;;;;5047430;28;20041;-60
2023/01/15 13:20:03;;;;;;;12.80;0.85;;;8.80;99.90;;;;;;5041711;28;20048;-59
2023/01/15 13:22:32;;;;;;;10.77;1.33;;;8.70;99.90;;;;;;5047087;28;20037;-59
2023/01/15 13:25:26;;;;;;;9.60;1.90;;;8.30;99.90;;;;;;5043624;28;20049;-59
2023/01/15 13:28:18;;;;;;;8.05;1.13;;;8.00;99.90;;;;;;5046650;28;20041;-58
2023/01/15 13:31:13;;;;;;;4.00;0.63;;;7.70;99.90;;;;;;5047230;28;20122;-59
2023/01/15 13:33:52;;;;;;;9.75;1.20;;;7.50;99.90;;;;;;5038352;28;20045;-60
2023/01/15 13:36:40;;;;;;;8.65;1.27;;;7.30;99.90;;;;;;5038001;28;20118;-59
2023/01/15 13:39:17;;;;;;;7.63;1.33;;;7.20;99.90;;;;;;5047004;28;20464;-59
2023/01/15 13:44:33;;;;;;;7.93;0.93;;;7.00;99.90;;;;;;5041716;28;20049;-59
2023/01/15 13:47:03;;;;;;;11.07;1.10;;;7.00;99.90;;;;;;5044199;28;20056;-60
2023/01/15 13:49:44;;;;;;;10.20;1.77;;;7.00;99.90;;;;;;5039387;28;20033;-58
2023/01/15 13:52:22;;;;;;;8.20;0.60;;;7.20;99.90;;;;;;5031589;28;20049;-59
2023/01/15 13:54:48;;;;;;;6.28;1.67;;;7.90;99.90;;;;;;5042272;28;20036;-59
2023/01/15 13:57:43;;;;;;;9.48;0.60;;;8.90;99.90;;;;;;5045041;28;20437;-59
2023/01/15 14:00:33;;;;;;;3.97;1.33;;;9.50;99.90;;;;;;5039474;28;20045;-59
2023/01/15 14:03:01;;;;;;;3.60;0.43;;;9.80;99.90;;;;;;5045900;28;20068;-59